createdAt,value
2023-11-24T00:04:39.756Z,100687.78
2023-11-24T00:09:32.857Z,100669.50
2023-11-24T00:14:26.086Z,100702.38
2023-11-24T00:19:18.122Z,100598.72
2023-11-24T00:24:10.371Z,100656.09
2023-11-24T00:29:02.964Z,100635.50
2023-11-24T00:33:55.551Z,100627.91
2023-11-24T00:38:47.597Z,100535.72
2023-11-24T00:43:40.456Z,100639.19
2023-11-24T00:48:33.013Z,100299.69
2023-11-24T00:53:30.750Z,100715.66
2023-11-24T00:58:22.779Z,100706.47
2023-11-24T01:03:18.037Z,100668.19
2023-11-24T01:08:10.230Z,100680.44
2023-11-24T01:13:04.058Z,100557.09
2023-11-24T01:18:00.494Z,100717.09
2023-11-24T01:22:53.213Z,100614.25
2023-11-24T01:27:47.006Z,100685.97
2023-11-24T01:32:40.124Z,100738.47
2023-11-24T01:37:32.643Z,100699.88
2023-11-24T01:42:24.945Z,100712.34
2023-11-24T01:47:17.710Z,100718.53
2023-11-24T01:52:10.051Z,100731.84
2023-11-24T01:57:03.636Z,100502.41
2023-11-24T02:01:58.727Z,100626.00
2023-11-24T02:06:52.498Z,100746.31
2023-11-24T02:11:46.718Z,100662.09
2023-11-24T02:16:39.382Z,100678.38
2023-11-24T02:21:31.468Z,100714.28
2023-11-24T02:26:26.495Z,100741.50
2023-11-24T02:31:18.487Z,100610.69
2023-11-24T02:36:22.666Z,100697.75
2023-11-24T02:41:18.105Z,100704.16
2023-11-24T02:46:17.663Z,100712.47
2023-11-24T02:51:10.904Z,100294.28
2023-11-24T02:56:05.473Z,100663.50
2023-11-24T03:00:58.674Z,100700.19
2023-11-24T03:05:55.623Z,100608.91
2023-11-24T03:10:50.104Z,100708.25
2023-11-24T03:15:43.142Z,100653.03
2023-11-24T03:20:37.409Z,100660.09
2023-11-24T03:25:30.876Z,100676.78
2023-11-24T03:30:25.247Z,100635.06
2023-11-24T03:35:18.741Z,100626.81
2023-11-24T03:40:11.971Z,100664.25
2023-11-24T03:45:04.347Z,100603.03
2023-11-24T03:49:56.882Z,100599.44
2023-11-24T03:54:49.163Z,100564.38
2023-11-24T03:59:41.216Z,100606.69
2023-11-24T04:04:35.505Z,100612.53
2023-11-24T04:09:27.736Z,100608.53
2023-11-24T04:14:20.240Z,100635.94
2023-11-24T04:19:12.581Z,100588.59
2023-11-24T04:24:04.930Z,100426.72
2023-11-24T04:28:58.659Z,100587.56
2023-11-24T04:33:53.648Z,100587.38
2023-11-24T04:38:46.776Z,100374.84
2023-11-24T04:43:40.808Z,100616.78
2023-11-24T04:48:33.041Z,100475.66
2023-11-24T04:53:25.270Z,100590.00
2023-11-24T04:58:17.282Z,100606.91
2023-11-24T05:03:09.514Z,100543.50
2023-11-24T05:08:01.493Z,100623.03
2023-11-24T05:12:54.957Z,100375.03
2023-11-24T05:17:47.378Z,100539.44
2023-11-24T05:22:41.391Z,100598.06
2023-11-24T05:27:33.352Z,100449.22
2023-11-24T05:32:26.257Z,100616.38
2023-11-24T05:37:19.260Z,100616.78
2023-11-24T05:42:12.988Z,100478.69
2023-11-24T05:47:06.343Z,100601.28
2023-11-24T05:51:59.393Z,100464.56
2023-11-24T05:56:51.574Z,100580.94
2023-11-24T06:01:51.031Z,100602.69
2023-11-24T06:06:43.167Z,100596.84
2023-11-24T06:11:38.071Z,100512.91
2023-11-24T06:16:29.994Z,100239.78
2023-11-24T06:21:22.120Z,100535.44
2023-11-24T06:26:14.325Z,100604.47
2023-11-24T06:31:11.467Z,100450.69
2023-11-24T06:36:05.498Z,100563.56
2023-11-24T06:40:59.465Z,100535.78
2023-11-24T06:45:53.578Z,100541.22
2023-11-24T06:50:46.250Z,100545.88
2023-11-24T06:55:38.882Z,100563.22
2023-11-24T07:00:31.686Z,100337.06
2023-11-24T07:05:25.094Z,100217.72
2023-11-24T07:10:20.900Z,100558.75
2023-11-24T07:15:13.281Z,100053.22
2023-11-24T07:20:12.989Z,100509.66
2023-11-24T07:25:05.695Z,100554.72
2023-11-24T07:29:58.312Z,100499.97
2023-11-24T07:34:53.459Z,100545.47
2023-11-24T07:39:46.574Z,100454.50
2023-11-24T07:44:39.074Z,100474.59
2023-11-24T07:49:32.014Z,100497.09
2023-11-24T07:54:27.756Z,100506.56
2023-11-24T07:59:22.188Z,100549.88
2023-11-24T08:04:15.444Z,100451.31
2023-11-24T08:09:09.941Z,100411.50
2023-11-24T08:14:04.883Z,100412.25
2023-11-24T08:18:59.391Z,100363.38
2023-11-24T08:23:51.794Z,100527.78
2023-11-24T08:28:45.478Z,100526.16
2023-11-24T08:33:39.892Z,100428.69
2023-11-24T08:38:36.390Z,100073.47
2023-11-24T08:43:30.793Z,100521.13
2023-11-24T08:48:24.796Z,100517.38
2023-11-24T08:53:17.236Z,100413.75
2023-11-24T09:03:20.310Z,100482.75
2023-11-24T09:08:20.473Z,100501.84
2023-11-24T09:23:29.882Z,100144.41
2023-11-24T09:43:53.517Z,100381.31
2023-11-24T09:53:57.320Z,100184.53
2023-11-24T10:04:04.357Z,100398.03
2023-11-24T10:09:07.297Z,100186.56
2023-11-24T10:14:00.593Z,100204.00
2023-11-24T10:24:08.114Z,100366.34
2023-11-24T10:34:15.089Z,100392.94
2023-11-24T10:39:15.037Z,100192.47
2023-11-24T10:49:43.836Z,100420.47
2023-11-24T10:54:41.784Z,100309.34
2023-11-24T10:59:40.253Z,100208.25
2023-11-24T11:04:42.554Z,100120.75
2023-11-24T11:09:50.335Z,100363.13
2023-11-24T11:20:05.148Z,100136.00
2023-11-24T11:25:35.129Z,99975.22
2023-11-24T11:30:30.800Z,100344.44
2023-11-24T11:35:30.134Z,100353.31
2023-11-24T11:40:25.442Z,100355.91
2023-11-24T11:45:31.697Z,100326.53
2023-11-24T11:50:27.306Z,100246.47
2023-11-24T11:55:25.119Z,100259.22
2023-11-24T12:00:18.214Z,100251.50
2023-11-24T12:05:16.279Z,100361.34
2023-11-24T12:10:12.989Z,100306.69
2023-11-24T12:15:09.445Z,99952.81
2023-11-24T12:32:20.172Z,100315.75
2023-11-24T12:37:13.795Z,100260.31
2023-11-24T12:42:08.701Z,100212.91
2023-11-24T12:47:13.145Z,100223.28
2023-11-24T12:52:06.818Z,100263.88
2023-11-24T12:57:02.576Z,100141.78
2023-11-24T13:02:00.344Z,100242.56
2023-11-24T13:06:54.319Z,100087.22
2023-11-24T13:11:48.128Z,100282.72
2023-11-24T13:16:42.379Z,100040.47
2023-11-24T13:21:35.432Z,100144.78
2023-11-24T13:26:29.400Z,100206.72
2023-11-24T13:31:23.291Z,100069.66
2023-11-24T13:36:18.437Z,100266.66
2023-11-24T13:41:13.718Z,100277.78
2023-11-24T13:46:07.838Z,100143.91
2023-11-24T13:51:04.711Z,100105.66
2023-11-24T13:55:58.940Z,100101.25
2023-11-24T14:00:57.476Z,99873.56
2023-11-24T14:12:08.332Z,100206.34
2023-11-24T14:17:03.756Z,100229.69
2023-11-24T14:22:00.464Z,100240.88
2023-11-24T14:26:55.849Z,100154.88
2023-11-24T14:31:51.812Z,100225.66
2023-11-24T14:36:46.584Z,100139.84
2023-11-24T14:41:40.346Z,99983.22
2023-11-24T14:46:40.786Z,100203.03
2023-11-24T14:51:37.366Z,100082.31
2023-11-24T14:56:32.312Z,100119.25
2023-11-24T15:01:29.386Z,99775.44
2023-11-24T15:06:26.748Z,100224.97
2023-11-24T15:11:22.285Z,100263.78
2023-11-24T16:36:02.010Z,100288.53
2023-11-24T16:46:34.932Z,100314.72
2023-11-24T16:51:35.469Z,100253.59
2023-11-24T19:03:52.180Z,100257.25
2023-11-24T19:32:43.437Z,100250.34
2023-11-24T19:44:21.127Z,100169.34
2023-11-24T20:05:57.235Z,100236.53
2023-11-24T20:11:14.777Z,100233.69
